• Join FlightAware (Why Join?)
  • Login
  • US Flag 
06:48PM EDT


 

Airport Tracker/Info


-or-


 

Live Flight TrackerFlight Track Log ✈ UPS1337 ✈ 27-May-2014 ✈ KPIE - KSDF

Flight Track Log - Related Links

Times and Time Zones

All times are in EDT time to prevent confusion due to time zone crossing. See the UPS1337 flight status page for this flight to view local times or setup timezone preferences in your user account.

Time Position Orientation Groundspeed Altitude Reporting Facility
EDT Latitude Longitude Course Direction KTS MPH feet Rate Location/Type
09:44PM 27.9167 -82.6833 10° North 179 206 600  Level Tampa TRACON
09:45PM 27.9500 -82.7000 336° Northwest 197 227 2,500 2,700 Climbing Tampa TRACON
09:46PM 28.0333 -82.6500 28° Northeast 291 335 5,500 1,920 Climbing Tampa TRACON
09:50PM 28.5864 -82.6460 10° North  Level FlightAware Approximate
09:51PM 28.4389 -82.7807 336° Northwest 400 460 14,500  Level FlightAware ADS-B (KMCO)
09:52PM 28.5017 -82.8119 336° Northwest 399 459 16,200 2,460 Climbing Miami Center
09:53PM 28.6206 -82.8747 335° Northwest 416 479 18,900 2,400 Climbing Miami Center
09:54PM 28.7333 -82.9258 338° Northwest 429 494 21,000 2,040 Climbing Miami Center
09:55PM 28.8594 -82.9125 North 453 521 23,100 1,860 Climbing Miami Center
09:56PM 28.9817 -82.9461 346° North 460 529 24,900 1,680 Climbing Miami Center
09:57PM 29.1067 -82.9900 343° North 466 536 26,600 1,680 Climbing Miami Center
09:58PM 29.2353 -83.0289 345° North 476 548 28,400 1,800 Climbing Miami Center
09:59PM 29.3622 -83.0681 345° North 475 547 30,300 1,680 Climbing Miami Center
10:00PM 29.4892 -83.1069 345° North 470 541 31,800 1,380 Climbing Miami Center
10:01PM 29.6150 -83.1456 345° North 468 539 33,200 1,080 Climbing Miami Center
10:02PM 29.7433 -83.1856 345° North 467 537 34,000 360 Climbing Miami Center
10:03PM 29.8714 -83.2253 345° North 467 537 34,000  Level Miami Center
10:04PM 29.9967 -83.2636 345° North 466 536 34,000  Level Miami Center
10:05PM 30.1217 -83.3025 345° North 465 535 34,000  Level Miami Center
10:06PM 30.2453 -83.3403 345° North 464 534 34,000  Level Miami Center
10:07PM 30.4222 -83.3961 345° North 455 524 34,000  Level Jacksonville Center
10:08PM 30.5453 -83.4328 346° North 455 524 34,000  Level Jacksonville Center
10:09PM 30.6703 -83.4747 344° North 455 524 34,000  Level Jacksonville Center
10:10PM 30.7933 -83.5117 346° North 455 524 34,000  Level Jacksonville Center
10:11PM 30.9017 -83.5486 344° North 455 524 34,000  Level Jacksonville Center
10:12PM 31.0247 -83.5858 345° North 455 524 34,000  Level Jacksonville Center
10:13PM 31.1475 -83.6256 345° North 455 524 34,000  Level Jacksonville Center
10:15PM 31.3725 -83.6522 354° North 471 542 34,000  Level Atlanta Center
10:16PM 31.5019 -83.6589 357° North 466 536 34,000  Level Atlanta Center
10:17PM 31.6439 -83.6656 358° North 460 529 34,000  Level Atlanta Center
10:18PM 31.7775 -83.6747 357° North 465 535 34,000  Level Atlanta Center
10:19PM 31.9153 -83.6792 358° North 478 550 34,000  Level Atlanta Center
10:20PM 32.0444 -83.6861 357° North 478 550 34,000  Level Atlanta Center
10:21PM 32.1781 -83.6928 358° North 473 544 34,000  Level Atlanta Center
10:22PM 32.3097 -83.6997 357° North 473 544 34,000  Level Atlanta Center
10:23PM 32.4411 -83.7067 357° North 473 544 34,000  Level Atlanta Center
10:24PM 32.5456 -83.7136 357° North 473 544 34,000  Level Atlanta Center
10:25PM 32.6897 -83.7253 356° North 480 552 34,000  Level Atlanta Center
10:26PM 32.8233 -83.7272 359° North 480 552 34,000  Level Atlanta Center
10:27PM 32.9569 -83.7342 358° North 480 552 34,000  Level Atlanta Center
10:28PM 33.1031 -83.7411 358° North 480 552 34,000  Level Atlanta Center
10:29PM 33.2367 -83.7508 357° North 480 552 34,000  Level Atlanta Center
10:30PM 33.3681 -83.7578 357° North 475 547 34,000  Level Atlanta Center
10:32PM 34.1852 -83.8000 357° North 471 542 34,000  Level FlightAware ADS-B (KDZJ)
10:33PM 34.2799 -83.8051 357° North 469 540 34,000  Level FlightAware ADS-B (KDZJ)
10:33PM 34.3666 -83.8099 358° North 481 554 34,000  Level FlightAware ADS-B (KDZJ)
10:34PM 34.4558 -83.8148 357° North 484 557 34,000  Level FlightAware ADS-B (KDZJ)
10:35PM 34.5468 -83.8198 357° North 484 557 34,000  Level FlightAware ADS-B (KDZJ)
10:35PM 34.6352 -83.8247 357° North 482 555 34,000  Level FlightAware ADS-B (KDZJ)
10:36PM 34.7154 -83.8291 357° North 483 556 34,000  Level FlightAware ADS-B (KDZJ)
10:37PM 34.8127 -83.8344 357° North 484 557 34,000  Level FlightAware ADS-B (KDZJ)
10:37PM 34.9015 -83.8394 357° North 484 557 34,000  Level FlightAware ADS-B (KDZJ)
10:38PM 34.9810 -83.8437 357° North 482 555 34,000  Level FlightAware ADS-B (KDZJ)
10:39PM 35.0817 -83.8493 357° North 480 552 34,000  Level FlightAware ADS-B (KDZJ)
10:39PM 35.1608 -83.8538 358° North 481 554 34,000  Level FlightAware ADS-B (KDZJ)
10:40PM 35.2268 -83.8574 357° North 481 554 34,000  Level FlightAware ADS-B (KDZJ)
10:41PM 35.3465 -83.8641 357° North 480 552 34,000  Level FlightAware ADS-B (KDZJ)
10:41PM 35.4279 -83.8686 357° North 480 552 34,000  Level FlightAware ADS-B (KDZJ)
10:43PM 35.0797 -83.8508 357° North 479 551 34,000  Level Atlanta Center
10:44PM 35.2153 -83.8583 357° North 479 551 34,000  Level Atlanta Center
10:45PM 35.3467 -83.8656 357° North 479 551 34,000  Level Atlanta Center
10:46PM 35.4803 -83.8731 357° North 479 551 34,000  Level Atlanta Center
10:47PM 35.6097 -83.8803 357° North 479 551 34,000  Level Atlanta Center
10:48PM 35.7369 -83.9286 343° North 479 551 34,000  Level Atlanta Center
10:49PM 35.8581 -83.9928 337° Northwest 473 544 34,000 -780 Level Atlanta Center
10:55PM 35.4279 -83.8686 337° Northwest 487 560 28,900 -900 Descending FlightAware ADS-B (KMDQ)
10:56PM 36.6897 -84.4306 337° Northwest 485 558 28,000 -1,620 Descending Indianapolis Center
10:57PM 36.8142 -84.4972 337° Northwest 485 558 26,000 -2,220 Descending Indianapolis Center
11:02PM 37.3985 -84.9717 326° Northwest 394 453 13,700 -2,100 Descending FlightAware ADS-B (KBRY)
11:03PM 37.4907 -85.0497 326° Northwest 393 452 12,100 -1,380 Descending FlightAware ADS-B (KBRY)
11:04PM 37.5815 -85.1268 326° Northwest 383 441 11,000 -600 Descending FlightAware ADS-B (KBRY)
11:05PM 37.6554 -85.2198 311° West 381 438 11,000  Level FlightAware ADS-B (KBRY)
11:06PM 37.7239 -85.3198 311° West 355 409 11,000 -240 Level FlightAware ADS-B (KBRY)
11:07PM 37.7817 -85.4041 310° West 293 337 10,600 -960 Descending FlightAware ADS-B (KBRY)
11:08PM 37.8342 -85.4821 311° West 287 330 9,100 -1,800 Descending FlightAware ADS-B (KBRY)
11:09PM 37.8853 -85.5573 311° West 278 320 7,000 -2,160 Descending FlightAware ADS-B (KBRY)
11:10PM 37.9366 -85.6326 311° West 269 310 4,800 -1,860 Descending FlightAware ADS-B (KBRY)
11:11PM 38.0031 -85.6882 347° North 238 274 3,000 -1,140 Descending FlightAware ADS-B (KBRY)
11:12PM 38.0592 -85.7067 345° North 171 197 2,400 -720 Descending FlightAware ADS-B (KBRY)
11:13PM 38.0852 -85.7153 346° North 137 158 1,600 -780 Descending FlightAware ADS-B (KBRY)
11:14PM 38.1286 -85.7296 346° North 141 162 1,000 -720 Descending FlightAware ADS-B (KBRY)
11:22PM 38.1667 -85.7333 302° West  Level FlightAware Approximate
11:23PM 38.1741 -85.7365 302° West  Level Estimated